sensor_id;sensor_type;location;lat;lon;timestamp;P1;durP1;ratioP1;P2;durP2;ratioP2
62832;SDS011;48891;49.220;6.920;2022-10-16T00:00:26;1.88;;;1.33;;
62832;SDS011;48891;49.220;6.920;2022-10-16T00:02:51;2.17;;;1.40;;
62832;SDS011;48891;49.220;6.920;2022-10-16T00:05:16;2.30;;;1.30;;
62832;SDS011;48891;49.220;6.920;2022-10-16T00:07:41;2.03;;;1.23;;
62832;SDS011;48891;49.220;6.920;2022-10-16T00:10:06;1.98;;;1.65;;
62832;SDS011;48891;49.220;6.920;2022-10-16T00:12:31;2.72;;;1.60;;
62832;SDS011;48891;49.220;6.920;2022-10-16T00:14:56;1.50;;;1.40;;
62832;SDS011;48891;49.220;6.920;2022-10-16T00:17:22;1.10;;;1.10;;
62832;SDS011;48891;49.220;6.920;2022-10-16T00:19:47;1.90;;;1.30;;
62832;SDS011;48891;49.220;6.920;2022-10-16T00:22:12;1.48;;;1.20;;
62832;SDS011;48891;49.220;6.920;2022-10-16T00:24:37;1.40;;;1.30;;
62832;SDS011;48891;49.220;6.920;2022-10-16T00:27:02;1.30;;;1.20;;
62832;SDS011;48891;49.220;6.920;2022-10-16T00:29:27;1.52;;;1.33;;
62832;SDS011;48891;49.220;6.920;2022-10-16T00:31:52;1.40;;;1.30;;
62832;SDS011;48891;49.220;6.920;2022-10-16T00:34:17;1.40;;;1.30;;
62832;SDS011;48891;49.220;6.920;2022-10-16T00:36:42;1.60;;;1.40;;
62832;SDS011;48891;49.220;6.920;2022-10-16T00:39:08;1.75;;;1.40;;
62832;SDS011;48891;49.220;6.920;2022-10-16T00:41:33;1.83;;;1.50;;
62832;SDS011;48891;49.220;6.920;2022-10-16T00:43:59;1.48;;;1.25;;
62832;SDS011;48891;49.220;6.920;2022-10-16T00:46:46;1.60;;;1.50;;
62832;SDS011;48891;49.220;6.920;2022-10-16T00:49:11;1.75;;;1.50;;
62832;SDS011;48891;49.220;6.920;2022-10-16T00:51:43;1.95;;;1.33;;
62832;SDS011;48891;49.220;6.920;2022-10-16T00:54:11;1.42;;;1.33;;
62832;SDS011;48891;49.220;6.920;2022-10-16T00:56:37;1.85;;;1.23;;
62832;SDS011;48891;49.220;6.920;2022-10-16T00:59:04;1.30;;;1.20;;
62832;SDS011;48891;49.220;6.920;2022-10-16T01:01:31;1.70;;;1.40;;
62832;SDS011;48891;49.220;6.920;2022-10-16T01:03:56;2.30;;;1.42;;
62832;SDS011;48891;49.220;6.920;2022-10-16T01:07:05;1.75;;;1.40;;
62832;SDS011;48891;49.220;6.920;2022-10-16T01:11:54;1.35;;;1.25;;
62832;SDS011;48891;49.220;6.920;2022-10-16T01:19:19;1.95;;;1.25;;
62832;SDS011;48891;49.220;6.920;2022-10-16T01:21:49;2.55;;;1.40;;
62832;SDS011;48891;49.220;6.920;2022-10-16T01:29:41;1.38;;;1.20;;
62832;SDS011;48891;49.220;6.920;2022-10-16T01:32:17;1.47;;;1.17;;
62832;SDS011;48891;49.220;6.920;2022-10-16T01:34:47;1.45;;;1.35;;
62832;SDS011;48891;49.220;6.920;2022-10-16T01:37:14;1.63;;;1.40;;
62832;SDS011;48891;49.220;6.920;2022-10-16T01:39:40;1.52;;;1.40;;
62832;SDS011;48891;49.220;6.920;2022-10-16T01:42:12;1.30;;;1.20;;
62832;SDS011;48891;49.220;6.920;2022-10-16T01:44:39;1.20;;;1.10;;
62832;SDS011;48891;49.220;6.920;2022-10-16T01:47:05;1.30;;;1.20;;
62832;SDS011;48891;49.220;6.920;2022-10-16T01:49:32;2.08;;;1.58;;
62832;SDS011;48891;49.220;6.920;2022-10-16T01:51:58;1.33;;;1.15;;
62832;SDS011;48891;49.220;6.920;2022-10-16T01:54:25;1.40;;;1.30;;
62832;SDS011;48891;49.220;6.920;2022-10-16T01:56:52;1.30;;;1.20;;
62832;SDS011;48891;49.220;6.920;2022-10-16T01:59:18;1.90;;;1.40;;
62832;SDS011;48891;49.220;6.920;2022-10-16T02:01:49;1.10;;;1.00;;
62832;SDS011;48891;49.220;6.920;2022-10-16T02:04:16;1.40;;;1.30;;
62832;SDS011;48891;49.220;6.920;2022-10-16T02:06:42;2.03;;;1.33;;
62832;SDS011;48891;49.220;6.920;2022-10-16T02:09:07;1.52;;;1.30;;
62832;SDS011;48891;49.220;6.920;2022-10-16T02:11:32;2.53;;;1.40;;
62832;SDS011;48891;49.220;6.920;2022-10-16T02:14:01;1.30;;;1.20;;
62832;SDS011;48891;49.220;6.920;2022-10-16T02:16:34;1.50;;;1.40;;
62832;SDS011;48891;49.220;6.920;2022-10-16T02:19:00;1.17;;;1.08;;
62832;SDS011;48891;49.220;6.920;2022-10-16T02:21:25;1.75;;;1.35;;
62832;SDS011;48891;49.220;6.920;2022-10-16T02:26:20;1.35;;;1.25;;
62832;SDS011;48891;49.220;6.920;2022-10-16T02:28:50;1.42;;;1.27;;
62832;SDS011;48891;49.220;6.920;2022-10-16T02:31:18;1.20;;;1.10;;
62832;SDS011;48891;49.220;6.920;2022-10-16T02:33:45;1.35;;;1.25;;
62832;SDS011;48891;49.220;6.920;2022-10-16T02:36:11;1.83;;;1.17;;
62832;SDS011;48891;49.220;6.920;2022-10-16T02:38:36;1.55;;;1.20;;
62832;SDS011;48891;49.220;6.920;2022-10-16T02:41:02;1.15;;;1.13;;
62832;SDS011;48891;49.220;6.920;2022-10-16T02:43:28;1.35;;;1.20;;
62832;SDS011;48891;49.220;6.920;2022-10-16T02:45:53;1.60;;;1.30;;
62832;SDS011;48891;49.220;6.920;2022-10-16T02:48:18;1.40;;;1.30;;
62832;SDS011;48891;49.220;6.920;2022-10-16T02:50:43;1.52;;;1.38;;
62832;SDS011;48891;49.220;6.920;2022-10-16T02:53:08;1.40;;;1.30;;
62832;SDS011;48891;49.220;6.920;2022-10-16T02:55:33;1.10;;;1.00;;
62832;SDS011;48891;49.220;6.920;2022-10-16T02:57:59;1.30;;;1.20;;
62832;SDS011;48891;49.220;6.920;2022-10-16T03:00:24;1.75;;;1.40;;
62832;SDS011;48891;49.220;6.920;2022-10-16T03:02:49;2.63;;;1.20;;
62832;SDS011;48891;49.220;6.920;2022-10-16T03:05:14;1.17;;;1.13;;
62832;SDS011;48891;49.220;6.920;2022-10-16T03:07:39;1.23;;;1.23;;
62832;SDS011;48891;49.220;6.920;2022-10-16T03:10:05;1.42;;;1.33;;
62832;SDS011;48891;49.220;6.920;2022-10-16T03:12:30;2.70;;;1.50;;
62832;SDS011;48891;49.220;6.920;2022-10-16T03:14:55;2.70;;;1.48;;
62832;SDS011;48891;49.220;6.920;2022-10-16T03:17:21;1.33;;;1.23;;
62832;SDS011;48891;49.220;6.920;2022-10-16T03:19:46;1.95;;;1.40;;
62832;SDS011;48891;49.220;6.920;2022-10-16T03:22:11;2.60;;;1.45;;
62832;SDS011;48891;49.220;6.920;2022-10-16T03:24:36;2.97;;;1.40;;
62832;SDS011;48891;49.220;6.920;2022-10-16T03:27:01;2.40;;;1.50;;
62832;SDS011;48891;49.220;6.920;2022-10-16T03:29:26;2.20;;;1.33;;
62832;SDS011;48891;49.220;6.920;2022-10-16T03:31:51;1.20;;;1.10;;
62832;SDS011;48891;49.220;6.920;2022-10-16T03:34:16;1.42;;;1.30;;
62832;SDS011;48891;49.220;6.920;2022-10-16T03:36:41;2.33;;;1.40;;
62832;SDS011;48891;49.220;6.920;2022-10-16T03:39:07;1.10;;;1.00;;
62832;SDS011;48891;49.220;6.920;2022-10-16T03:41:32;1.63;;;1.40;;
62832;SDS011;48891;49.220;6.920;2022-10-16T03:43:57;1.50;;;1.23;;
62832;SDS011;48891;49.220;6.920;2022-10-16T03:46:22;2.00;;;1.35;;
62832;SDS011;48891;49.220;6.920;2022-10-16T03:48:47;1.52;;;1.33;;
62832;SDS011;48891;49.220;6.920;2022-10-16T03:51:12;2.20;;;1.27;;
62832;SDS011;48891;49.220;6.920;2022-10-16T03:53:37;1.50;;;1.40;;
62832;SDS011;48891;49.220;6.920;2022-10-16T03:56:02;2.10;;;1.30;;
62832;SDS011;48891;49.220;6.920;2022-10-16T03:58:27;2.63;;;1.33;;
62832;SDS011;48891;49.220;6.920;2022-10-16T04:00:53;1.27;;;1.20;;
62832;SDS011;48891;49.220;6.920;2022-10-16T04:03:18;1.92;;;1.48;;
62832;SDS011;48891;49.220;6.920;2022-10-16T04:05:43;1.25;;;1.15;;
62832;SDS011;48891;49.220;6.920;2022-10-16T04:08:08;1.55;;;1.45;;
62832;SDS011;48891;49.220;6.920;2022-10-16T04:10:33;1.50;;;1.40;;
62832;SDS011;48891;49.220;6.920;2022-10-16T04:12:58;2.00;;;1.30;;
62832;SDS011;48891;49.220;6.920;2022-10-16T04:15:23;2.20;;;1.37;;
62832;SDS011;48891;49.220;6.920;2022-10-16T04:17:49;1.55;;;1.30;;
62832;SDS011;48891;49.220;6.920;2022-10-16T04:20:14;1.33;;;1.07;;
62832;SDS011;48891;49.220;6.920;2022-10-16T04:22:39;1.55;;;1.20;;
62832;SDS011;48891;49.220;6.920;2022-10-16T04:25:05;1.25;;;1.15;;
62832;SDS011;48891;49.220;6.920;2022-10-16T04:27:30;1.45;;;1.30;;
62832;SDS011;48891;49.220;6.920;2022-10-16T04:29:55;1.50;;;1.30;;
62832;SDS011;48891;49.220;6.920;2022-10-16T04:32:20;1.23;;;1.13;;
62832;SDS011;48891;49.220;6.920;2022-10-16T04:34:45;1.40;;;1.30;;
62832;SDS011;48891;49.220;6.920;2022-10-16T04:37:10;1.65;;;1.10;;
62832;SDS011;48891;49.220;6.920;2022-10-16T04:39:35;1.40;;;1.30;;
62832;SDS011;48891;49.220;6.920;2022-10-16T04:42:00;1.30;;;1.20;;
62832;SDS011;48891;49.220;6.920;2022-10-16T04:44:26;1.80;;;1.30;;
62832;SDS011;48891;49.220;6.920;2022-10-16T04:46:51;1.50;;;1.40;;
62832;SDS011;48891;49.220;6.920;2022-10-16T04:49:16;1.25;;;1.20;;
62832;SDS011;48891;49.220;6.920;2022-10-16T04:51:41;1.40;;;1.30;;
62832;SDS011;48891;49.220;6.920;2022-10-16T04:54:06;1.65;;;1.30;;
62832;SDS011;48891;49.220;6.920;2022-10-16T04:56:31;2.83;;;1.40;;
62832;SDS011;48891;49.220;6.920;2022-10-16T04:58:56;1.50;;;1.40;;
62832;SDS011;48891;49.220;6.920;2022-10-16T05:01:21;1.67;;;1.40;;
62832;SDS011;48891;49.220;6.920;2022-10-16T05:03:47;1.60;;;1.10;;
62832;SDS011;48891;49.220;6.920;2022-10-16T05:06:12;1.73;;;1.30;;
62832;SDS011;48891;49.220;6.920;2022-10-16T05:08:37;1.70;;;1.50;;
62832;SDS011;48891;49.220;6.920;2022-10-16T05:11:02;1.98;;;1.35;;
62832;SDS011;48891;49.220;6.920;2022-10-16T05:13:27;1.42;;;1.33;;
62832;SDS011;48891;49.220;6.920;2022-10-16T05:15:52;1.40;;;1.30;;
62832;SDS011;48891;49.220;6.920;2022-10-16T05:18:18;1.60;;;1.50;;
62832;SDS011;48891;49.220;6.920;2022-10-16T05:20:43;1.10;;;1.10;;
62832;SDS011;48891;49.220;6.920;2022-10-16T05:23:08;1.65;;;1.38;;
62832;SDS011;48891;49.220;6.920;2022-10-16T05:25:33;1.30;;;1.20;;
62832;SDS011;48891;49.220;6.920;2022-10-16T05:27:58;2.35;;;1.70;;
62832;SDS011;48891;49.220;6.920;2022-10-16T05:30:23;1.30;;;1.20;;
62832;SDS011;48891;49.220;6.920;2022-10-16T05:32:49;1.43;;;1.30;;
62832;SDS011;48891;49.220;6.920;2022-10-16T05:35:14;1.50;;;1.20;;
62832;SDS011;48891;49.220;6.920;2022-10-16T05:37:39;1.52;;;1.27;;
62832;SDS011;48891;49.220;6.920;2022-10-16T05:40:04;1.67;;;1.30;;
62832;SDS011;48891;49.220;6.920;2022-10-16T05:42:30;2.90;;;1.38;;
62832;SDS011;48891;49.220;6.920;2022-10-16T05:44:55;1.40;;;1.30;;
62832;SDS011;48891;49.220;6.920;2022-10-16T05:47:20;2.53;;;1.38;;
62832;SDS011;48891;49.220;6.920;2022-10-16T05:49:45;2.38;;;1.60;;
62832;SDS011;48891;49.220;6.920;2022-10-16T05:52:10;1.98;;;1.40;;
62832;SDS011;48891;49.220;6.920;2022-10-16T05:54:36;1.42;;;1.30;;
62832;SDS011;48891;49.220;6.920;2022-10-16T05:57:01;2.15;;;1.33;;
62832;SDS011;48891;49.220;6.920;2022-10-16T05:59:26;1.50;;;1.20;;
62832;SDS011;48891;49.220;6.920;2022-10-16T06:01:51;1.20;;;1.10;;
62832;SDS011;48891;49.220;6.920;2022-10-16T06:04:16;2.33;;;1.48;;
62832;SDS011;48891;49.220;6.920;2022-10-16T06:06:41;2.40;;;1.67;;
62832;SDS011;48891;49.220;6.920;2022-10-16T06:09:06;1.70;;;1.60;;
62832;SDS011;48891;49.220;6.920;2022-10-16T06:11:32;1.98;;;1.65;;
62832;SDS011;48891;49.220;6.920;2022-10-16T06:13:58;1.77;;;1.48;;
62832;SDS011;48891;49.220;6.920;2022-10-16T06:16:24;2.25;;;1.48;;
62832;SDS011;48891;49.220;6.920;2022-10-16T06:18:53;2.17;;;1.52;;
62832;SDS011;48891;49.220;6.920;2022-10-16T06:21:19;1.48;;;1.38;;
62832;SDS011;48891;49.220;6.920;2022-10-16T06:23:45;2.45;;;1.40;;
62832;SDS011;48891;49.220;6.920;2022-10-16T06:26:11;2.27;;;1.50;;
62832;SDS011;48891;49.220;6.920;2022-10-16T06:28:36;2.13;;;1.52;;
62832;SDS011;48891;49.220;6.920;2022-10-16T06:31:02;1.48;;;1.38;;
62832;SDS011;48891;49.220;6.920;2022-10-16T06:33:28;1.95;;;1.40;;
62832;SDS011;48891;49.220;6.920;2022-10-16T06:35:53;1.73;;;1.40;;
62832;SDS011;48891;49.220;6.920;2022-10-16T06:38:18;1.87;;;1.50;;
62832;SDS011;48891;49.220;6.920;2022-10-16T06:40:43;2.20;;;1.40;;
62832;SDS011;48891;49.220;6.920;2022-10-16T06:43:08;2.28;;;1.60;;
62832;SDS011;48891;49.220;6.920;2022-10-16T06:45:33;2.23;;;1.43;;
62832;SDS011;48891;49.220;6.920;2022-10-16T06:47:59;2.05;;;1.45;;
62832;SDS011;48891;49.220;6.920;2022-10-16T06:50:24;1.77;;;1.48;;
62832;SDS011;48891;49.220;6.920;2022-10-16T06:52:49;2.10;;;1.50;;
62832;SDS011;48891;49.220;6.920;2022-10-16T06:55:14;1.65;;;1.30;;
62832;SDS011;48891;49.220;6.920;2022-10-16T06:57:39;2.13;;;1.50;;
62832;SDS011;48891;49.220;6.920;2022-10-16T07:00:04;2.47;;;1.40;;
62832;SDS011;48891;49.220;6.920;2022-10-16T07:02:30;1.67;;;1.30;;
62832;SDS011;48891;49.220;6.920;2022-10-16T07:04:55;2.45;;;1.58;;
62832;SDS011;48891;49.220;6.920;2022-10-16T07:07:20;1.38;;;1.20;;
62832;SDS011;48891;49.220;6.920;2022-10-16T07:09:45;2.13;;;1.65;;
62832;SDS011;48891;49.220;6.920;2022-10-16T07:12:10;1.35;;;1.27;;
62832;SDS011;48891;49.220;6.920;2022-10-16T07:14:35;2.15;;;1.40;;
62832;SDS011;48891;49.220;6.920;2022-10-16T07:17:00;1.92;;;1.40;;
62832;SDS011;48891;49.220;6.920;2022-10-16T07:19:25;2.17;;;1.58;;
62832;SDS011;48891;49.220;6.920;2022-10-16T07:21:51;2.60;;;1.63;;
62832;SDS011;48891;49.220;6.920;2022-10-16T07:24:16;2.85;;;1.63;;
62832;SDS011;48891;49.220;6.920;2022-10-16T07:26:42;2.03;;;1.52;;
62832;SDS011;48891;49.220;6.920;2022-10-16T07:29:12;2.25;;;1.40;;
62832;SDS011;48891;49.220;6.920;2022-10-16T07:31:37;1.80;;;1.48;;
62832;SDS011;48891;49.220;6.920;2022-10-16T07:34:02;2.35;;;1.42;;
62832;SDS011;48891;49.220;6.920;2022-10-16T07:36:28;2.10;;;1.60;;
62832;SDS011;48891;49.220;6.920;2022-10-16T07:38:53;1.80;;;1.60;;
62832;SDS011;48891;49.220;6.920;2022-10-16T07:41:18;2.45;;;1.70;;
62832;SDS011;48891;49.220;6.920;2022-10-16T07:43:47;2.63;;;1.67;;
62832;SDS011;48891;49.220;6.920;2022-10-16T07:46:13;2.75;;;1.60;;
62832;SDS011;48891;49.220;6.920;2022-10-16T07:48:38;1.85;;;1.42;;
62832;SDS011;48891;49.220;6.920;2022-10-16T07:51:04;1.80;;;1.50;;
62832;SDS011;48891;49.220;6.920;2022-10-16T07:53:30;2.03;;;1.42;;
62832;SDS011;48891;49.220;6.920;2022-10-16T07:55:58;1.43;;;1.30;;
62832;SDS011;48891;49.220;6.920;2022-10-16T07:58:24;2.45;;;1.50;;
62832;SDS011;48891;49.220;6.920;2022-10-16T08:00:49;2.72;;;1.60;;
62832;SDS011;48891;49.220;6.920;2022-10-16T08:03:14;1.55;;;1.45;;
62832;SDS011;48891;49.220;6.920;2022-10-16T08:05:39;1.40;;;1.30;;
62832;SDS011;48891;49.220;6.920;2022-10-16T08:08:04;2.38;;;1.50;;
62832;SDS011;48891;49.220;6.920;2022-10-16T08:10:29;2.47;;;1.45;;
62832;SDS011;48891;49.220;6.920;2022-10-16T08:12:54;1.40;;;1.30;;
62832;SDS011;48891;49.220;6.920;2022-10-16T08:15:20;3.33;;;1.75;;
62832;SDS011;48891;49.220;6.920;2022-10-16T08:17:53;2.88;;;1.48;;
62832;SDS011;48891;49.220;6.920;2022-10-16T08:20:18;4.13;;;1.60;;
62832;SDS011;48891;49.220;6.920;2022-10-16T08:22:43;3.13;;;1.75;;
62832;SDS011;48891;49.220;6.920;2022-10-16T08:25:08;1.58;;;1.30;;
62832;SDS011;48891;49.220;6.920;2022-10-16T08:27:34;2.83;;;1.70;;
62832;SDS011;48891;49.220;6.920;2022-10-16T08:29:59;1.70;;;1.42;;
62832;SDS011;48891;49.220;6.920;2022-10-16T08:32:24;2.05;;;1.45;;
62832;SDS011;48891;49.220;6.920;2022-10-16T08:34:49;1.88;;;1.50;;
62832;SDS011;48891;49.220;6.920;2022-10-16T08:37:14;2.28;;;1.48;;
62832;SDS011;48891;49.220;6.920;2022-10-16T08:39:39;1.53;;;1.40;;
62832;SDS011;48891;49.220;6.920;2022-10-16T08:42:07;2.50;;;1.50;;
62832;SDS011;48891;49.220;6.920;2022-10-16T08:49:32;2.42;;;1.50;;
62832;SDS011;48891;49.220;6.920;2022-10-16T08:51:57;1.65;;;1.20;;
62832;SDS011;48891;49.220;6.920;2022-10-16T08:54:25;1.90;;;1.30;;
62832;SDS011;48891;49.220;6.920;2022-10-16T08:56:54;2.58;;;1.65;;
62832;SDS011;48891;49.220;6.920;2022-10-16T08:59:19;3.75;;;1.60;;
62832;SDS011;48891;49.220;6.920;2022-10-16T09:01:45;3.05;;;1.60;;
62832;SDS011;48891;49.220;6.920;2022-10-16T09:04:20;2.03;;;1.50;;
62832;SDS011;48891;49.220;6.920;2022-10-16T09:06:50;2.08;;;1.50;;
62832;SDS011;48891;49.220;6.920;2022-10-16T09:11:53;2.20;;;1.60;;
62832;SDS011;48891;49.220;6.920;2022-10-16T09:17:18;1.95;;;1.60;;
62832;SDS011;48891;49.220;6.920;2022-10-16T09:19:46;2.05;;;1.38;;
62832;SDS011;48891;49.220;6.920;2022-10-16T09:22:16;2.25;;;1.42;;
62832;SDS011;48891;49.220;6.920;2022-10-16T09:24:42;1.88;;;1.35;;
62832;SDS011;48891;49.220;6.920;2022-10-16T09:27:14;1.85;;;1.70;;
62832;SDS011;48891;49.220;6.920;2022-10-16T09:29:39;1.52;;;1.40;;
62832;SDS011;48891;49.220;6.920;2022-10-16T09:32:10;1.48;;;1.38;;
62832;SDS011;48891;49.220;6.920;2022-10-16T09:34:36;1.90;;;1.50;;
62832;SDS011;48891;49.220;6.920;2022-10-16T09:37:04;1.38;;;1.27;;
62832;SDS011;48891;49.220;6.920;2022-10-16T09:39:30;2.00;;;1.55;;
62832;SDS011;48891;49.220;6.920;2022-10-16T09:41:55;1.60;;;1.40;;
62832;SDS011;48891;49.220;6.920;2022-10-16T09:44:23;1.50;;;1.40;;
62832;SDS011;48891;49.220;6.920;2022-10-16T09:51:42;2.00;;;1.50;;
62832;SDS011;48891;49.220;6.920;2022-10-16T09:56:33;1.83;;;1.48;;
62832;SDS011;48891;49.220;6.920;2022-10-16T09:59:01;2.25;;;1.50;;
62832;SDS011;48891;49.220;6.920;2022-10-16T10:04:23;2.20;;;1.45;;
62832;SDS011;48891;49.220;6.920;2022-10-16T10:06:55;2.17;;;1.55;;
62832;SDS011;48891;49.220;6.920;2022-10-16T10:09:21;2.08;;;1.50;;
62832;SDS011;48891;49.220;6.920;2022-10-16T10:11:57;2.17;;;1.45;;
62832;SDS011;48891;49.220;6.920;2022-10-16T10:14:23;2.33;;;1.60;;
62832;SDS011;48891;49.220;6.920;2022-10-16T10:16:49;2.08;;;1.77;;
62832;SDS011;48891;49.220;6.920;2022-10-16T10:19:18;2.25;;;1.52;;
62832;SDS011;48891;49.220;6.920;2022-10-16T10:21:44;2.13;;;1.60;;
62832;SDS011;48891;49.220;6.920;2022-10-16T10:24:11;3.15;;;1.77;;
62832;SDS011;48891;49.220;6.920;2022-10-16T10:26:36;2.90;;;1.77;;
62832;SDS011;48891;49.220;6.920;2022-10-16T10:31:48;1.75;;;1.40;;
62832;SDS011;48891;49.220;6.920;2022-10-16T10:37:03;3.10;;;1.70;;
62832;SDS011;48891;49.220;6.920;2022-10-16T10:39:32;2.08;;;1.60;;
62832;SDS011;48891;49.220;6.920;2022-10-16T10:42:44;2.42;;;1.90;;
62832;SDS011;48891;49.220;6.920;2022-10-16T10:45:33;2.38;;;1.60;;
62832;SDS011;48891;49.220;6.920;2022-10-16T10:55:36;1.98;;;1.67;;
62832;SDS011;48891;49.220;6.920;2022-10-16T10:58:10;2.72;;;1.70;;
62832;SDS011;48891;49.220;6.920;2022-10-16T11:05:56;3.40;;;1.95;;
62832;SDS011;48891;49.220;6.920;2022-10-16T11:08:27;3.38;;;2.00;;
62832;SDS011;48891;49.220;6.920;2022-10-16T11:13:23;2.35;;;1.70;;
62832;SDS011;48891;49.220;6.920;2022-10-16T11:15:50;2.80;;;1.77;;
62832;SDS011;48891;49.220;6.920;2022-10-16T11:18:17;5.53;;;2.00;;
62832;SDS011;48891;49.220;6.920;2022-10-16T11:20:46;4.80;;;1.98;;
62832;SDS011;48891;49.220;6.920;2022-10-16T11:25:38;3.28;;;1.85;;
62832;SDS011;48891;49.220;6.920;2022-10-16T11:30:43;3.40;;;2.08;;
62832;SDS011;48891;49.220;6.920;2022-10-16T11:35:47;4.82;;;1.80;;
62832;SDS011;48891;49.220;6.920;2022-10-16T11:38:15;3.90;;;2.13;;
62832;SDS011;48891;49.220;6.920;2022-10-16T11:40:45;3.28;;;1.83;;
62832;SDS011;48891;49.220;6.920;2022-10-16T11:43:17;3.03;;;1.70;;
62832;SDS011;48891;49.220;6.920;2022-10-16T11:45:46;2.60;;;1.70;;
62832;SDS011;48891;49.220;6.920;2022-10-16T11:51:05;3.65;;;1.90;;
62832;SDS011;48891;49.220;6.920;2022-10-16T11:56:03;2.97;;;1.77;;
62832;SDS011;48891;49.220;6.920;2022-10-16T11:58:34;3.88;;;2.33;;
62832;SDS011;48891;49.220;6.920;2022-10-16T12:03:36;3.58;;;1.92;;
62832;SDS011;48891;49.220;6.920;2022-10-16T12:08:39;3.75;;;2.10;;
62832;SDS011;48891;49.220;6.920;2022-10-16T12:13:48;4.07;;;1.90;;
62832;SDS011;48891;49.220;6.920;2022-10-16T12:18:42;3.20;;;1.83;;
62832;SDS011;48891;49.220;6.920;2022-10-16T12:21:07;3.20;;;1.83;;
62832;SDS011;48891;49.220;6.920;2022-10-16T12:23:36;3.63;;;1.95;;
62832;SDS011;48891;49.220;6.920;2022-10-16T12:26:01;3.03;;;1.90;;
62832;SDS011;48891;49.220;6.920;2022-10-16T12:28:28;3.13;;;2.05;;
62832;SDS011;48891;49.220;6.920;2022-10-16T12:30:54;4.30;;;2.00;;
62832;SDS011;48891;49.220;6.920;2022-10-16T12:33:21;5.05;;;2.00;;
62832;SDS011;48891;49.220;6.920;2022-10-16T12:35:47;3.88;;;2.47;;
62832;SDS011;48891;49.220;6.920;2022-10-16T12:38:19;3.27;;;1.70;;
62832;SDS011;48891;49.220;6.920;2022-10-16T12:40:44;3.70;;;2.10;;
62832;SDS011;48891;49.220;6.920;2022-10-16T12:43:56;3.60;;;1.90;;
62832;SDS011;48891;49.220;6.920;2022-10-16T12:46:00;3.53;;;2.00;;
62832;SDS011;48891;49.220;6.920;2022-10-16T12:48:25;4.15;;;1.85;;
62832;SDS011;48891;49.220;6.920;2022-10-16T12:50:51;4.72;;;2.20;;
62832;SDS011;48891;49.220;6.920;2022-10-16T12:53:20;3.58;;;2.05;;
62832;SDS011;48891;49.220;6.920;2022-10-16T12:56:09;2.63;;;1.88;;
62832;SDS011;48891;49.220;6.920;2022-10-16T12:58:46;3.25;;;2.03;;
62832;SDS011;48891;49.220;6.920;2022-10-16T13:03:47;2.58;;;1.92;;
62832;SDS011;48891;49.220;6.920;2022-10-16T13:21:36;2.85;;;2.00;;
62832;SDS011;48891;49.220;6.920;2022-10-16T13:24:08;2.75;;;1.88;;
62832;SDS011;48891;49.220;6.920;2022-10-16T13:29:07;3.38;;;2.10;;
62832;SDS011;48891;49.220;6.920;2022-10-16T13:31:32;2.43;;;1.80;;
62832;SDS011;48891;49.220;6.920;2022-10-16T13:33:57;3.40;;;2.03;;
62832;SDS011;48891;49.220;6.920;2022-10-16T13:36:27;3.90;;;2.47;;
62832;SDS011;48891;49.220;6.920;2022-10-16T13:41:37;3.13;;;1.90;;
62832;SDS011;48891;49.220;6.920;2022-10-16T13:44:02;3.55;;;2.00;;
62832;SDS011;48891;49.220;6.920;2022-10-16T13:46:27;3.67;;;2.17;;
62832;SDS011;48891;49.220;6.920;2022-10-16T13:48:59;2.78;;;2.00;;
62832;SDS011;48891;49.220;6.920;2022-10-16T13:51:24;3.85;;;2.08;;
62832;SDS011;48891;49.220;6.920;2022-10-16T13:53:50;3.83;;;2.00;;
62832;SDS011;48891;49.220;6.920;2022-10-16T13:56:19;2.35;;;1.92;;
62832;SDS011;48891;49.220;6.920;2022-10-16T13:58:45;5.57;;;2.28;;
62832;SDS011;48891;49.220;6.920;2022-10-16T14:01:17;2.78;;;1.98;;
62832;SDS011;48891;49.220;6.920;2022-10-16T14:03:42;3.55;;;2.03;;
62832;SDS011;48891;49.220;6.920;2022-10-16T14:06:11;4.43;;;2.10;;
62832;SDS011;48891;49.220;6.920;2022-10-16T14:08:40;2.85;;;2.00;;
62832;SDS011;48891;49.220;6.920;2022-10-16T14:11:06;3.40;;;2.33;;
62832;SDS011;48891;49.220;6.920;2022-10-16T14:13:53;3.07;;;1.83;;
62832;SDS011;48891;49.220;6.920;2022-10-16T14:16:18;3.55;;;2.15;;
62832;SDS011;48891;49.220;6.920;2022-10-16T14:18:45;3.65;;;2.20;;
62832;SDS011;48891;49.220;6.920;2022-10-16T14:21:12;3.35;;;2.08;;
62832;SDS011;48891;49.220;6.920;2022-10-16T14:23:39;3.15;;;1.95;;
62832;SDS011;48891;49.220;6.920;2022-10-16T14:28:33;3.13;;;1.88;;
62832;SDS011;48891;49.220;6.920;2022-10-16T14:30:59;3.00;;;2.23;;
62832;SDS011;48891;49.220;6.920;2022-10-16T14:33:25;3.45;;;2.20;;
62832;SDS011;48891;49.220;6.920;2022-10-16T14:36:00;3.20;;;2.13;;
62832;SDS011;48891;49.220;6.920;2022-10-16T14:38:26;2.85;;;2.05;;
62832;SDS011;48891;49.220;6.920;2022-10-16T14:40:51;5.13;;;2.30;;
62832;SDS011;48891;49.220;6.920;2022-10-16T14:43:26;3.03;;;2.10;;
62832;SDS011;48891;49.220;6.920;2022-10-16T14:45:54;3.13;;;2.55;;
62832;SDS011;48891;49.220;6.920;2022-10-16T14:48:20;2.97;;;2.10;;
62832;SDS011;48891;49.220;6.920;2022-10-16T14:50:46;2.87;;;2.00;;
62832;SDS011;48891;49.220;6.920;2022-10-16T14:53:11;2.55;;;1.83;;
62832;SDS011;48891;49.220;6.920;2022-10-16T14:55:37;2.78;;;1.85;;
62832;SDS011;48891;49.220;6.920;2022-10-16T14:58:02;3.17;;;2.00;;
62832;SDS011;48891;49.220;6.920;2022-10-16T15:00:27;2.95;;;1.90;;
62832;SDS011;48891;49.220;6.920;2022-10-16T15:02:52;3.92;;;2.10;;
62832;SDS011;48891;49.220;6.920;2022-10-16T15:05:19;3.70;;;2.28;;
62832;SDS011;48891;49.220;6.920;2022-10-16T15:07:45;3.22;;;2.10;;
62832;SDS011;48891;49.220;6.920;2022-10-16T15:10:10;3.47;;;2.30;;
62832;SDS011;48891;49.220;6.920;2022-10-16T15:12:35;3.85;;;2.30;;
62832;SDS011;48891;49.220;6.920;2022-10-16T15:15:00;3.17;;;1.95;;
62832;SDS011;48891;49.220;6.920;2022-10-16T15:17:25;3.70;;;1.90;;
62832;SDS011;48891;49.220;6.920;2022-10-16T15:19:51;5.30;;;2.33;;
62832;SDS011;48891;49.220;6.920;2022-10-16T15:22:16;3.90;;;2.10;;
62832;SDS011;48891;49.220;6.920;2022-10-16T15:24:41;4.53;;;2.20;;
62832;SDS011;48891;49.220;6.920;2022-10-16T15:27:06;3.17;;;2.10;;
62832;SDS011;48891;49.220;6.920;2022-10-16T15:29:31;5.75;;;2.30;;
62832;SDS011;48891;49.220;6.920;2022-10-16T15:31:56;14.27;;;2.65;;
62832;SDS011;48891;49.220;6.920;2022-10-16T15:34:21;4.82;;;2.60;;
62832;SDS011;48891;49.220;6.920;2022-10-16T15:36:47;4.50;;;2.63;;
62832;SDS011;48891;49.220;6.920;2022-10-16T15:39:13;6.28;;;2.95;;
62832;SDS011;48891;49.220;6.920;2022-10-16T15:41:38;4.85;;;2.90;;
62832;SDS011;48891;49.220;6.920;2022-10-16T15:44:03;4.60;;;3.00;;
62832;SDS011;48891;49.220;6.920;2022-10-16T15:46:28;4.72;;;3.30;;
62832;SDS011;48891;49.220;6.920;2022-10-16T15:48:56;5.07;;;3.00;;
62832;SDS011;48891;49.220;6.920;2022-10-16T15:51:21;5.37;;;2.67;;
62832;SDS011;48891;49.220;6.920;2022-10-16T15:53:46;5.30;;;3.23;;
62832;SDS011;48891;49.220;6.920;2022-10-16T15:56:12;4.55;;;3.00;;
62832;SDS011;48891;49.220;6.920;2022-10-16T15:58:37;5.53;;;2.90;;
62832;SDS011;48891;49.220;6.920;2022-10-16T16:01:03;5.22;;;3.20;;
62832;SDS011;48891;49.220;6.920;2022-10-16T16:03:28;5.05;;;3.38;;
62832;SDS011;48891;49.220;6.920;2022-10-16T16:05:53;5.28;;;3.50;;
62832;SDS011;48891;49.220;6.920;2022-10-16T16:08:19;5.45;;;3.30;;
62832;SDS011;48891;49.220;6.920;2022-10-16T16:10:44;8.27;;;3.60;;
62832;SDS011;48891;49.220;6.920;2022-10-16T16:13:09;5.70;;;3.67;;
62832;SDS011;48891;49.220;6.920;2022-10-16T16:15:34;4.88;;;3.40;;
62832;SDS011;48891;49.220;6.920;2022-10-16T16:17:59;5.72;;;3.50;;
62832;SDS011;48891;49.220;6.920;2022-10-16T16:20:24;5.47;;;3.60;;
62832;SDS011;48891;49.220;6.920;2022-10-16T16:22:49;6.20;;;4.03;;
62832;SDS011;48891;49.220;6.920;2022-10-16T16:25:15;5.85;;;3.58;;
62832;SDS011;48891;49.220;6.920;2022-10-16T16:27:40;6.13;;;4.13;;
62832;SDS011;48891;49.220;6.920;2022-10-16T16:30:06;5.30;;;3.90;;